Lattimore, NC

10:28 AM EDT on April 18, 2015 (GMT -0400)
Gardner-Webb University | | Change Station
CLOSE
Current Station
Personal Weather Station
Location: Boiling Springs, NC
Elevation: 850 ft
Nearby Weather Stations

Elev 850 ft 35.24 °N, 81.67 °W | Updated 4 minutes ago

Overcast
Overcast
65.4 °F
Feels Like 65.4 °F
N
3.0
Wind Variable Wind from NE
Gusts 6.0 mph

Today
High -- | Low -- °F
--% Chance of Precip.
Yesterday
High -- | Low -- °F
Precip. -- in
6:50 AM 8:01 PM
Waning Crescent, 0% visible
Pressure 30.02 in
Visibility 7.0 miles
Clouds Mostly Cloudy 300 ft
Mostly Cloudy 7000 ft
Overcast 8500 ft
Dew Point 65 °F
Humidity 97%
Rainfall 0.05 in
Snow Depth Not available.
UV 2 out of 12
Pollen 10.00 out of 12
Air Quality Not available.
Flu Activity Sporadic
METAR KEHO 181415Z AUTO 00000KT 7SM BKN003 BKN070 OVC085 18/17 A3002 RMK AO2 T01780171

More Conditions Fewer Conditions

Pressure 30.02 in
Visibility 7.0 miles
Clouds Mostly Cloudy 300 ft
Mostly Cloudy 7000 ft
Overcast 8500 ft
Dew Point 65 °F
Humidity 97%
Rainfall 0.05 in
Snow Depth Not available.
UV 2 out of 12
Pollen 10.00 out of 12
Air Quality Not available.
Flu Activity Sporadic
METAR KEHO 181415Z AUTO 00000KT 7SM BKN003 BKN070 OVC085 18/17 A3002 RMK AO2 T01780171

More Conditions Fewer Conditions

10-Day Weather Forecast

Almanac

Astronomy

Apr. 18, 2015 Rise Set
Actual Time
Civil Twilight
Nautical Twilight
Astronomical Twilight
Moon
Length of Visible Light
Length of Day
Tomorrow will be .
, % of the Moon is Illuminated

Today's Extremes

State Highs State Lows

Community

WunderPhotos

Upload Photos

1,814,414 photos uploaded!

WunderBlogs® & News

Nearby

Air Quality

  Air Quality AQ Index Pollutant
Not available.

Snow Depth

Station Depth Elevation

Earthquake Activity

City Distance Mag. Time & Date
Minimum magnitude displayed is 2.5.

Coastal Water Temperatures

Place Temperature

Stations

Nearby Weather Stations

Station Location Temp. Windchill Dew Point Humidity Wind Precip. Elev Updated Type